Austin, Pennsylvania
Current Conditions -  °F | °C
As of 4:53 PM on Tuesday 25 Nov 2014 (Local Time) from KBFD Reporting Station
Overcast Overcast  
Wind Chill: 33°   Ceiling: 3700
Heat Index: 38°   Visibility: 10mi
Dew Point: 24°   Wind: 6mph
Humidity: 57%   Direction: NA
Pressure: 30.01"   Gusts: 18mph
Location:  41.63°N, 78.09°W
Report Text: KBFD 252153Z AUTO VRB05G16KT 10SM OVC037 03/M04 A3001 RMK AO2 SLP175 T00331044
Loading
Personal Weather Stations






























Interactive Weather Map New forecast layout! Learn more

10-Day Weather Forecast

Advertisements
Track Severe Weather on mobile